WetterOnline ( https://www.wetteronline.de )

Wetter aktuell Rotenburg

Aktuelles Wetter: Soltau (76m)

6-stündlich | Neueste Meldungen
Ortszeit Temperatur Wetter
Fr, 21.02. 13:00 6.4° C bewölkt
Fr, 21.02. 7:00 3.0° C leichter Regen
Fr, 21.02. 1:00 4.2° C leichter Regen
Do, 20.02. 19:00 7.5° C bedeckt
Do, 20.02. 13:00 6.4° C leichter Regen
Do, 20.02. 7:00 2.9° C Sprühregen
Do, 20.02. 1:00 1.5° C fast wolkenlos
Mi, 19.02. 19:00 4.9° C Sprühregen
Ortszeit Temperatur Wetter
Fr, 21.02. 14:00 7.0° C wolkig
Fr, 21.02. 13:50 7.0° C wolkig
Fr, 21.02. 13:40 7.0° C wolkig
Fr, 21.02. 13:30 6.7° C bewölkt
Fr, 21.02. 13:20 6.7° C bewölkt
Fr, 21.02. 13:10 6.6° C bewölkt
Fr, 21.02. 13:00 6.4° C bewölkt
Fr, 21.02. 12:30 5.6° C bewölkt
Fr, 21.02. 12:00 5.5° C bedeckt
Fr, 21.02. 11:30 5.4° C bewölkt
Fr, 21.02. 11:00 5.3° C bewölkt
Ortszeit Relative Feuchte Sichtweite
Fr, 21.02. 13:00 71% 30 km
Fr, 21.02. 7:00 90% 6 km
Fr, 21.02. 1:00 86% 35 km
Do, 20.02. 19:00 76% 55 km
Do, 20.02. 13:00 94% 19 km
Do, 20.02. 7:00 95% -
Do, 20.02. 1:00 84% 30 km
Mi, 19.02. 19:00 82% 18 km
Ortszeit Relative Feuchte Sichtweite
Fr, 21.02. 14:00 66% 35 km
Fr, 21.02. 13:50 66% -
Fr, 21.02. 13:40 65% -
Fr, 21.02. 13:30 67% 35 km
Fr, 21.02. 13:20 67% -
Fr, 21.02. 13:10 68% -
Fr, 21.02. 13:00 71% 30 km
Fr, 21.02. 12:30 73% 29 km
Fr, 21.02. 12:00 74% 30 km
Fr, 21.02. 11:30 75% 30 km
Fr, 21.02. 11:00 76% 30 km
Ortszeit Niederschlagsmenge Niederschlagsart
Fr, 21.02. 13:00 1 l/m2 in 6 Std. Regen
Fr, 21.02. 7:00 7 l/m2 in 12 Std. Regen
Fr, 21.02. 1:00 6 l/m2 in 6 Std. Regen, Niederschlag
Do, 20.02. 19:00 3 l/m2 in 12 Std. Regen
Do, 20.02. 13:00 3 l/m2 in 6 Std. Regen
Do, 20.02. 7:00 0.2 l/m2 in 12 Std. Regen
Do, 20.02. 1:00 0.1 l/m2 in 6 Std. Regen
Mi, 19.02. 19:00 2 l/m2 in 12 Std. Regen
Ortszeit Niederschlagsmenge Niederschlagsart
Fr, 21.02. 14:00 0.0 l/m2 in 1 Std. -
Fr, 21.02. 13:50 keine Meldung -
Fr, 21.02. 13:40 keine Meldung -
Fr, 21.02. 13:30 0.0 l/m2 in 1 Std. -
Fr, 21.02. 13:20 keine Meldung -
Fr, 21.02. 13:10 keine Meldung -
Fr, 21.02. 13:00 0.0 l/m2 in 1 Std. Regen
Fr, 21.02. 12:30 0.0 l/m2 in 1 Std. -
Fr, 21.02. 12:00 0.0 l/m2 in 1 Std. -
Fr, 21.02. 11:30 0.0 l/m2 in 1 Std. -
Fr, 21.02. 11:00 0.0 l/m2 in 1 Std. -
Ortszeit Stärke Spitze Richtung
km/h Bft. km/h Grad Sektor
Fr, 21.02. 13:00 22 4 47 240° SW
Fr, 21.02. 7:00 30 5 56 270° W
Fr, 21.02. 1:00 35 5 54 290° W
Do, 20.02. 19:00 18 3 36 190° S
Do, 20.02. 13:00 14 3 32 180° S
Do, 20.02. 7:00 15 3 22 180° S
Do, 20.02. 1:00 11 2 36 210° SW
Mi, 19.02. 19:00 22 4 58 280° W
Ortszeit Stärke Spitze Richtung
km/h Bft. km/h Grad Sektor
Fr, 21.02. 14:00 31 5 50 250° W
Fr, 21.02. 13:50 31 5 - 250° W
Fr, 21.02. 13:40 32 5 - 250° W
Fr, 21.02. 13:30 30 5 46 250° W
Fr, 21.02. 13:20 30 5 - 250° W
Fr, 21.02. 13:10 31 5 - 240° SW
Fr, 21.02. 13:00 22 4 40 240° SW
Fr, 21.02. 12:30 24 4 39 250° W
Fr, 21.02. 12:00 28 4 43 250° W
Fr, 21.02. 11:30 25 4 43 240° SW
Fr, 21.02. 11:00 33 5 48 250° W
Ortszeit Untergrenze Bedeckung Gattung
total tief tief mittel hoch
Fr, 21.02. 13:00 690 m 7/8 7/8 - - -
Fr, 21.02. 7:00 360 m 8/8 8/8 - - -
Fr, 21.02. 1:00 360 m 8/8 8/8 - - -
Do, 20.02. 19:00 1500 m 8/8 8/8 - - -
Do, 20.02. 13:00 210 m 7/8 8/8 - - -
Do, 20.02. 7:00 150 m 8/8 8/8 - - -
Do, 20.02. 1:00 840 m 1/8 1/8 - - -
Mi, 19.02. 19:00 600 m 7/8 7/8 - - -
Ortszeit Bedeckungsgrad in Achtel und Wolkenuntergrenze
Fr, 21.02. 14:00 5(930m) 7(6600m) 7(7800m)
Fr, 21.02. 13:50 5(930m) 7(6600m) 7(7800m)
Fr, 21.02. 13:40 3(840m) 6(6600m) 7(7500m)
Fr, 21.02. 13:30 1(660m) 7(1020m) 7(6600m)
Fr, 21.02. 13:20 1(660m) 7(1020m) 7(6600m)
Fr, 21.02. 13:10 2(660m) 7(960m) 7(7500m)
Fr, 21.02. 13:00 6(690m) 7(870m) 7(7500m)
Fr, 21.02. 12:30 7(660m) 7(780m)
Fr, 21.02. 12:00 5(630m) 7(870m) 8(1020m)
Fr, 21.02. 11:30 6(600m) 7(1140m) 8(1110m)
Fr, 21.02. 11:00 4(600m) 5(750m) 7(1140m)
Ortszeit Luftdruck NN (hPa) Tendenz (hPa in 3 Std.)
Fr, 21.02. 13:00 1022 + 1,2
Fr, 21.02. 7:00 1018 + 3,6
Fr, 21.02. 1:00 1010 + 4,9
Do, 20.02. 19:00 1008 - 3,0
Do, 20.02. 13:00 1014 - 1,5
Do, 20.02. 7:00 1016 - 1,5
Do, 20.02. 1:00 1019 - 0,3
Mi, 19.02. 19:00 1018 + 3,0
Ortszeit Luftdruck NN (hPa) Tendenz (hPa in 3 Std.)
Fr, 21.02. 14:00 1022 + 0,5
Fr, 21.02. 13:50 1022 keine Meldung
Fr, 21.02. 13:40 1022 keine Meldung
Fr, 21.02. 13:30 1022 + 0,7
Fr, 21.02. 13:20 1022 keine Meldung
Fr, 21.02. 13:10 1022 keine Meldung
Fr, 21.02. 13:00 1022 + 1,2
Fr, 21.02. 12:30 1022 + 1,7
Fr, 21.02. 12:00 1022 + 2,2
Fr, 21.02. 11:30 1022 + 2,6
Fr, 21.02. 11:00 1021 + 2,4
Ortszeit Schneehöhe (cm)
Fr, 21.02. 13:00 0
Fr, 21.02. 7:00 0
Fr, 21.02. 1:00 0
Do, 20.02. 19:00 0
Do, 20.02. 13:00 0
Do, 20.02. 7:00 0
Do, 20.02. 1:00 0
Mi, 19.02. 19:00 0
Ortszeit Schneehöhe (cm)
Fr, 21.02. 14:00 0
Fr, 21.02. 13:50 0
Fr, 21.02. 13:40 0
Fr, 21.02. 13:30 0
Fr, 21.02. 13:20 0
Fr, 21.02. 13:10 0
Fr, 21.02. 13:00 0
Fr, 21.02. 12:30 0
Fr, 21.02. 12:00 0
Fr, 21.02. 11:30 0
Fr, 21.02. 11:00 0
Link zu dieser Seite / Seite empfehlen

Das Wetter in ...